الصفحة الرئيسية
METAR-TAF:

METAR-TAF

مطار :

مطار ماكاو الدولي

ماكاو, جمهورية الصين الشعبية

دائرة عرض: 22-10N, خط طول: 113-34E, ارتفاع: 114 متر

مراقبة الطقس الحالي

تاريخ ووقت الإصدار 37 دقيقة قبل الساعة 02:00UTC
ريح 13 عقدة من الجنوب
درجة الحرارة 31°درجة مئوية
الرطوبة 79%
ضغط 1009 hPa
الرؤية 10 كم أو أكثر
غيوم قليلة على ارتفاع 1500 قدم

METAR: VMMC 040200Z 18013KT 9999 FEW015 31/27 Q1009 NOSIG

زمن: 10:37 (02:37 UTC)

توقعات

تاريخ ووقت الإصدار 3ساعات و 37 دقيقة قبل الساعة 23:00UTC
التوقعات صالحة من04 الساعة 00 UTC إلى 05 الساعة 06 UTC
ريح 10 عقدة من الجنوب
الرؤية 10 كم أو أكثر
غيوم قليلة على ارتفاع 1500 قدم
مؤقت
من 04 الساعة 00 UTC إلى 04 الساعة 09 UTC
الرؤية: 3500 متر
غيوم قليلة على ارتفاع 1000 قدم, مزنة ركامية.
غيوم متفرقة على ارتفاع 2000 قدم
زخات من المطر
مؤقت
من 04 الساعة 18 UTC إلى 04 الساعة 24 UTC
الرؤية: 3500 متر
غيوم قليلة على ارتفاع 1000 قدم, مزنة ركامية.
غيوم متفرقة على ارتفاع 2000 قدم
زخات من المطر

TAF: VMMC 032300Z 0400/0506 18010KT 9999 FEW015 TEMPO 0400/0409 3500 SHRA FEW010CB SCT020 TEMPO 0418/0424 3500 SHRA FEW010CB SCT020

أرصاد الطقس والتوقعات من أكثر من 4000 مطار (تقارير الطقس للمطار METAR والتنبؤ بالطقس بالمطارTAF).

المحطات المتاحة هي النقط الصفراء والحمراء على الخريطة.

حرك المؤشر فوق النقطة لمعرفة اسم المحطة.

ثم انقر لمعرفة أرصاد وتوقعات الطقس.

لتغيير الخارطة: اضغط على الأزرار الخضراء مع رمز الصليب الأسود للتكبير. على الزر الأخضر مع شرطة للتصغير، أو على الأسهم الخضراء للخرائط المجاورة.


METAR-TAF: